sensor_id;sensor_type;location;lat;lon;timestamp;pressure;altitude;pressure_sealevel;temperature;humidity
75298;BME280;63896;45.990;18.688;2024-02-21T00:02:00;101647.38;;;4.89;100.00
75298;BME280;63896;45.990;18.688;2024-02-21T00:05:03;101643.06;;;5.15;100.00
75298;BME280;63896;45.990;18.688;2024-02-21T00:08:06;101646.81;;;5.12;100.00
75298;BME280;63896;45.990;18.688;2024-02-21T00:11:09;101644.78;;;5.06;100.00
75298;BME280;63896;45.990;18.688;2024-02-21T00:14:12;101653.84;;;4.94;100.00
75298;BME280;63896;45.990;18.688;2024-02-21T00:17:15;101646.72;;;5.04;100.00
75298;BME280;63896;45.990;18.688;2024-02-21T00:20:17;101656.81;;;4.82;100.00
75298;BME280;63896;45.990;18.688;2024-02-21T00:23:20;101661.53;;;4.78;100.00
75298;BME280;63896;45.990;18.688;2024-02-21T00:26:23;101658.09;;;4.68;100.00
75298;BME280;63896;45.990;18.688;2024-02-21T00:40:22;101654.22;;;4.25;100.00
75298;BME280;63896;45.990;18.688;2024-02-21T00:43:25;101651.91;;;4.22;100.00
75298;BME280;63896;45.990;18.688;2024-02-21T00:46:28;101655.19;;;4.44;100.00
75298;BME280;63896;45.990;18.688;2024-02-21T00:49:31;101660.81;;;4.49;100.00
75298;BME280;63896;45.990;18.688;2024-02-21T00:52:34;101651.84;;;4.78;100.00
75298;BME280;63896;45.990;18.688;2024-02-21T00:55:37;101656.94;;;4.80;100.00
75298;BME280;63896;45.990;18.688;2024-02-21T00:58:40;101644.13;;;4.95;100.00
75298;BME280;63896;45.990;18.688;2024-02-21T01:01:43;101638.31;;;5.01;100.00
75298;BME280;63896;45.990;18.688;2024-02-21T01:04:46;101644.88;;;5.14;100.00
75298;BME280;63896;45.990;18.688;2024-02-21T01:07:49;101644.38;;;5.28;100.00
75298;BME280;63896;45.990;18.688;2024-02-21T01:10:52;101636.78;;;5.43;100.00
75298;BME280;63896;45.990;18.688;2024-02-21T01:13:55;101640.03;;;5.55;100.00
75298;BME280;63896;45.990;18.688;2024-02-21T01:16:58;101647.16;;;5.62;100.00
75298;BME280;63896;45.990;18.688;2024-02-21T01:20:01;101649.69;;;5.72;100.00
75298;BME280;63896;45.990;18.688;2024-02-21T01:23:04;101646.47;;;5.78;100.00
75298;BME280;63896;45.990;18.688;2024-02-21T01:26:07;101648.91;;;5.89;100.00
75298;BME280;63896;45.990;18.688;2024-02-21T01:29:10;101648.78;;;5.81;100.00
75298;BME280;63896;45.990;18.688;2024-02-21T01:32:13;101644.38;;;5.82;100.00
75298;BME280;63896;45.990;18.688;2024-02-21T01:35:16;101630.38;;;5.81;100.00
75298;BME280;63896;45.990;18.688;2024-02-21T01:38:19;101630.78;;;5.86;100.00
75298;BME280;63896;45.990;18.688;2024-02-21T01:41:22;101628.56;;;5.99;100.00
75298;BME280;63896;45.990;18.688;2024-02-21T01:44:25;101632.31;;;5.97;100.00
75298;BME280;63896;45.990;18.688;2024-02-21T01:47:28;101627.19;;;5.95;100.00
75298;BME280;63896;45.990;18.688;2024-02-21T01:50:31;101622.75;;;5.96;100.00
75298;BME280;63896;45.990;18.688;2024-02-21T01:53:37;101620.38;;;6.02;100.00
75298;BME280;63896;45.990;18.688;2024-02-21T01:56:40;101626.38;;;5.95;100.00
75298;BME280;63896;45.990;18.688;2024-02-21T01:59:43;101621.34;;;6.01;100.00
75298;BME280;63896;45.990;18.688;2024-02-21T02:02:46;101617.63;;;6.12;100.00
75298;BME280;63896;45.990;18.688;2024-02-21T02:05:49;101617.53;;;6.21;100.00
75298;BME280;63896;45.990;18.688;2024-02-21T02:08:53;101620.75;;;6.15;100.00
75298;BME280;63896;45.990;18.688;2024-02-21T02:11:57;101623.34;;;6.07;100.00
75298;BME280;63896;45.990;18.688;2024-02-21T02:15:02;101621.78;;;6.22;100.00
75298;BME280;63896;45.990;18.688;2024-02-21T02:18:09;101623.59;;;6.22;100.00
75298;BME280;63896;45.990;18.688;2024-02-21T02:21:21;101622.22;;;6.10;100.00
75298;BME280;63896;45.990;18.688;2024-02-21T02:24:25;101627.06;;;6.22;100.00
75298;BME280;63896;45.990;18.688;2024-02-21T02:27:28;101626.13;;;6.32;100.00
75298;BME280;63896;45.990;18.688;2024-02-21T02:30:35;101626.66;;;6.35;100.00
75298;BME280;63896;45.990;18.688;2024-02-21T02:33:38;101624.16;;;6.34;100.00
75298;BME280;63896;45.990;18.688;2024-02-21T02:36:41;101629.66;;;6.40;100.00
75298;BME280;63896;45.990;18.688;2024-02-21T02:39:44;101629.91;;;6.29;100.00
75298;BME280;63896;45.990;18.688;2024-02-21T02:42:48;101626.75;;;6.26;100.00
75298;BME280;63896;45.990;18.688;2024-02-21T02:45:51;101627.84;;;6.15;100.00
75298;BME280;63896;45.990;18.688;2024-02-21T02:48:54;101628.28;;;6.10;100.00
75298;BME280;63896;45.990;18.688;2024-02-21T02:51:57;101625.66;;;6.10;100.00
75298;BME280;63896;45.990;18.688;2024-02-21T02:55:00;101632.28;;;6.14;100.00
75298;BME280;63896;45.990;18.688;2024-02-21T02:58:04;101629.69;;;6.22;100.00
75298;BME280;63896;45.990;18.688;2024-02-21T03:01:07;101636.16;;;6.28;100.00
75298;BME280;63896;45.990;18.688;2024-02-21T03:04:10;101631.81;;;6.19;100.00
75298;BME280;63896;45.990;18.688;2024-02-21T03:07:14;101633.34;;;6.21;100.00
75298;BME280;63896;45.990;18.688;2024-02-21T03:10:17;101638.75;;;6.20;100.00
75298;BME280;63896;45.990;18.688;2024-02-21T03:13:21;101632.56;;;6.29;100.00
75298;BME280;63896;45.990;18.688;2024-02-21T03:16:24;101630.13;;;6.36;100.00
75298;BME280;63896;45.990;18.688;2024-02-21T03:19:27;101629.75;;;6.31;100.00
75298;BME280;63896;45.990;18.688;2024-02-21T03:22:31;101623.81;;;6.29;100.00
75298;BME280;63896;45.990;18.688;2024-02-21T03:25:35;101627.56;;;6.26;100.00
75298;BME280;63896;45.990;18.688;2024-02-21T03:28:38;101625.16;;;6.33;100.00
75298;BME280;63896;45.990;18.688;2024-02-21T03:31:42;101625.94;;;6.25;100.00
75298;BME280;63896;45.990;18.688;2024-02-21T03:34:45;101624.59;;;6.21;100.00
75298;BME280;63896;45.990;18.688;2024-02-21T03:37:48;101626.41;;;6.20;100.00
75298;BME280;63896;45.990;18.688;2024-02-21T03:40:52;101627.56;;;6.26;100.00
75298;BME280;63896;45.990;18.688;2024-02-21T03:43:55;101629.22;;;6.27;100.00
75298;BME280;63896;45.990;18.688;2024-02-21T03:46:59;101625.44;;;6.21;100.00
75298;BME280;63896;45.990;18.688;2024-02-21T03:50:02;101624.88;;;6.18;100.00
75298;BME280;63896;45.990;18.688;2024-02-21T03:53:05;101630.00;;;6.19;100.00
75298;BME280;63896;45.990;18.688;2024-02-21T03:56:08;101627.06;;;6.22;100.00
75298;BME280;63896;45.990;18.688;2024-02-21T03:59:11;101627.13;;;6.31;100.00
75298;BME280;63896;45.990;18.688;2024-02-21T04:02:14;101631.97;;;6.43;100.00
75298;BME280;63896;45.990;18.688;2024-02-21T04:05:17;101628.50;;;6.43;100.00
75298;BME280;63896;45.990;18.688;2024-02-21T04:08:20;101636.88;;;6.38;100.00
75298;BME280;63896;45.990;18.688;2024-02-21T04:11:24;101639.97;;;6.34;100.00
75298;BME280;63896;45.990;18.688;2024-02-21T04:14:27;101637.66;;;6.31;100.00
75298;BME280;63896;45.990;18.688;2024-02-21T04:17:32;101631.56;;;6.30;100.00
75298;BME280;63896;45.990;18.688;2024-02-21T04:20:35;101634.19;;;6.30;100.00
75298;BME280;63896;45.990;18.688;2024-02-21T04:23:38;101636.00;;;6.30;100.00
75298;BME280;63896;45.990;18.688;2024-02-21T04:26:41;101636.03;;;6.38;100.00
75298;BME280;63896;45.990;18.688;2024-02-21T04:29:44;101635.06;;;6.39;100.00
75298;BME280;63896;45.990;18.688;2024-02-21T04:32:46;101638.84;;;6.36;100.00
75298;BME280;63896;45.990;18.688;2024-02-21T04:35:50;101635.75;;;6.41;100.00
75298;BME280;63896;45.990;18.688;2024-02-21T04:38:54;101637.56;;;6.40;100.00
75298;BME280;63896;45.990;18.688;2024-02-21T04:41:57;101637.66;;;6.56;100.00
75298;BME280;63896;45.990;18.688;2024-02-21T04:44:59;101632.47;;;6.47;100.00
75298;BME280;63896;45.990;18.688;2024-02-21T04:48:02;101643.22;;;6.53;100.00
75298;BME280;63896;45.990;18.688;2024-02-21T04:51:05;101638.97;;;6.60;100.00
75298;BME280;63896;45.990;18.688;2024-02-21T04:54:08;101636.81;;;6.56;100.00
75298;BME280;63896;45.990;18.688;2024-02-21T04:57:11;101640.91;;;6.50;100.00
75298;BME280;63896;45.990;18.688;2024-02-21T05:00:19;101648.75;;;6.42;100.00
75298;BME280;63896;45.990;18.688;2024-02-21T05:03:22;101649.22;;;6.38;100.00
75298;BME280;63896;45.990;18.688;2024-02-21T05:06:25;101642.66;;;6.42;100.00
75298;BME280;63896;45.990;18.688;2024-02-21T05:09:28;101633.34;;;6.30;100.00
75298;BME280;63896;45.990;18.688;2024-02-21T05:12:31;101637.81;;;6.29;100.00
75298;BME280;63896;45.990;18.688;2024-02-21T05:15:33;101641.25;;;6.21;100.00
75298;BME280;63896;45.990;18.688;2024-02-21T05:18:36;101636.56;;;6.15;100.00
75298;BME280;63896;45.990;18.688;2024-02-21T05:21:39;101642.00;;;6.14;100.00
75298;BME280;63896;45.990;18.688;2024-02-21T05:24:42;101636.13;;;6.20;100.00
75298;BME280;63896;45.990;18.688;2024-02-21T05:27:45;101632.84;;;6.26;100.00
75298;BME280;63896;45.990;18.688;2024-02-21T05:30:48;101636.31;;;6.27;100.00
75298;BME280;63896;45.990;18.688;2024-02-21T05:33:51;101638.94;;;6.27;100.00
75298;BME280;63896;45.990;18.688;2024-02-21T05:36:54;101637.19;;;6.35;100.00
75298;BME280;63896;45.990;18.688;2024-02-21T05:39:57;101643.28;;;6.36;100.00
75298;BME280;63896;45.990;18.688;2024-02-21T05:42:59;101642.78;;;6.32;100.00
75298;BME280;63896;45.990;18.688;2024-02-21T05:46:02;101640.81;;;6.34;100.00
75298;BME280;63896;45.990;18.688;2024-02-21T05:49:05;101642.16;;;6.38;100.00
75298;BME280;63896;45.990;18.688;2024-02-21T05:52:09;101642.00;;;6.40;100.00
75298;BME280;63896;45.990;18.688;2024-02-21T05:55:12;101641.69;;;6.43;100.00
75298;BME280;63896;45.990;18.688;2024-02-21T05:58:15;101648.28;;;6.47;100.00
75298;BME280;63896;45.990;18.688;2024-02-21T06:01:18;101644.84;;;6.46;100.00
75298;BME280;63896;45.990;18.688;2024-02-21T06:04:21;101650.63;;;6.50;100.00
75298;BME280;63896;45.990;18.688;2024-02-21T06:07:24;101654.78;;;6.52;100.00
75298;BME280;63896;45.990;18.688;2024-02-21T06:10:27;101662.53;;;6.62;100.00
75298;BME280;63896;45.990;18.688;2024-02-21T06:13:29;101661.09;;;6.67;100.00
75298;BME280;63896;45.990;18.688;2024-02-21T06:16:32;101658.47;;;6.67;100.00
75298;BME280;63896;45.990;18.688;2024-02-21T06:19:35;101654.31;;;6.65;100.00
75298;BME280;63896;45.990;18.688;2024-02-21T06:22:38;101657.81;;;6.74;100.00
75298;BME280;63896;45.990;18.688;2024-02-21T06:25:41;101655.69;;;6.77;100.00
75298;BME280;63896;45.990;18.688;2024-02-21T06:28:44;101668.28;;;6.83;100.00
75298;BME280;63896;45.990;18.688;2024-02-21T06:31:49;101657.53;;;6.85;100.00
75298;BME280;63896;45.990;18.688;2024-02-21T06:34:52;101666.28;;;6.85;100.00
75298;BME280;63896;45.990;18.688;2024-02-21T06:37:55;101670.28;;;6.97;100.00
75298;BME280;63896;45.990;18.688;2024-02-21T06:40:58;101665.53;;;7.01;100.00
75298;BME280;63896;45.990;18.688;2024-02-21T06:44:03;101674.59;;;6.98;100.00
75298;BME280;63896;45.990;18.688;2024-02-21T06:47:06;101685.38;;;7.13;100.00
75298;BME280;63896;45.990;18.688;2024-02-21T06:50:10;101682.28;;;7.26;100.00
75298;BME280;63896;45.990;18.688;2024-02-21T06:53:13;101675.66;;;7.22;100.00
75298;BME280;63896;45.990;18.688;2024-02-21T06:56:16;101685.53;;;7.19;100.00
75298;BME280;63896;45.990;18.688;2024-02-21T06:59:19;101684.56;;;7.21;100.00
75298;BME280;63896;45.990;18.688;2024-02-21T07:02:21;101697.13;;;7.35;100.00
75298;BME280;63896;45.990;18.688;2024-02-21T07:05:24;101692.50;;;7.29;100.00
75298;BME280;63896;45.990;18.688;2024-02-21T07:08:28;101696.00;;;7.37;100.00
75298;BME280;63896;45.990;18.688;2024-02-21T07:11:34;101699.31;;;7.47;100.00
75298;BME280;63896;45.990;18.688;2024-02-21T07:14:37;101690.75;;;7.61;100.00
75298;BME280;63896;45.990;18.688;2024-02-21T07:17:40;101692.91;;;7.66;100.00
75298;BME280;63896;45.990;18.688;2024-02-21T07:20:43;101693.59;;;7.68;100.00
75298;BME280;63896;45.990;18.688;2024-02-21T07:23:45;101689.31;;;7.75;100.00
75298;BME280;63896;45.990;18.688;2024-02-21T07:26:48;101689.09;;;7.68;100.00
75298;BME280;63896;45.990;18.688;2024-02-21T07:29:51;101687.66;;;7.90;100.00
75298;BME280;63896;45.990;18.688;2024-02-21T07:32:54;101690.13;;;8.00;100.00
75298;BME280;63896;45.990;18.688;2024-02-21T07:35:56;101684.34;;;7.96;100.00
75298;BME280;63896;45.990;18.688;2024-02-21T07:38:59;101684.69;;;7.93;100.00
75298;BME280;63896;45.990;18.688;2024-02-21T07:42:02;101682.88;;;8.02;100.00
75298;BME280;63896;45.990;18.688;2024-02-21T07:45:07;101680.84;;;8.28;100.00
75298;BME280;63896;45.990;18.688;2024-02-21T07:48:16;101689.47;;;8.14;100.00
75298;BME280;63896;45.990;18.688;2024-02-21T07:51:49;101686.16;;;8.20;100.00
75298;BME280;63896;45.990;18.688;2024-02-21T07:54:52;101690.44;;;8.21;100.00
75298;BME280;63896;45.990;18.688;2024-02-21T07:57:55;101690.13;;;8.40;100.00
75298;BME280;63896;45.990;18.688;2024-02-21T08:00:58;101682.84;;;8.42;100.00
75298;BME280;63896;45.990;18.688;2024-02-21T08:04:00;101679.91;;;8.37;100.00
75298;BME280;63896;45.990;18.688;2024-02-21T08:07:05;101674.91;;;8.42;100.00
75298;BME280;63896;45.990;18.688;2024-02-21T08:10:10;101673.22;;;8.57;100.00
75298;BME280;63896;45.990;18.688;2024-02-21T08:13:16;101672.81;;;8.77;100.00
75298;BME280;63896;45.990;18.688;2024-02-21T08:16:19;101668.34;;;8.85;100.00
75298;BME280;63896;45.990;18.688;2024-02-21T08:19:26;101667.56;;;9.07;100.00
75298;BME280;63896;45.990;18.688;2024-02-21T08:22:29;101669.97;;;9.25;100.00
75298;BME280;63896;45.990;18.688;2024-02-21T08:25:32;101674.28;;;9.26;100.00
75298;BME280;63896;45.990;18.688;2024-02-21T08:28:35;101670.53;;;9.43;100.00
75298;BME280;63896;45.990;18.688;2024-02-21T08:31:38;101669.94;;;9.56;100.00
75298;BME280;63896;45.990;18.688;2024-02-21T08:34:41;101668.34;;;9.70;100.00
75298;BME280;63896;45.990;18.688;2024-02-21T08:37:44;101666.72;;;9.91;100.00
75298;BME280;63896;45.990;18.688;2024-02-21T08:40:50;101664.56;;;10.10;99.73
75298;BME280;63896;45.990;18.688;2024-02-21T08:43:54;101667.56;;;10.29;96.93
75298;BME280;63896;45.990;18.688;2024-02-21T08:46:57;101668.41;;;10.44;92.46
75298;BME280;63896;45.990;18.688;2024-02-21T08:50:00;101668.97;;;10.69;90.89
75298;BME280;63896;45.990;18.688;2024-02-21T08:53:16;101672.31;;;10.78;88.67
75298;BME280;63896;45.990;18.688;2024-02-21T08:56:21;101672.84;;;11.17;85.78
75298;BME280;63896;45.990;18.688;2024-02-21T08:59:24;101670.00;;;11.97;81.25
75298;BME280;63896;45.990;18.688;2024-02-21T09:02:31;101668.88;;;13.83;68.46
75298;BME280;63896;45.990;18.688;2024-02-21T09:05:34;101668.16;;;15.75;60.16
75298;BME280;63896;45.990;18.688;2024-02-21T09:08:37;101665.81;;;15.47;57.26
75298;BME280;63896;45.990;18.688;2024-02-21T09:11:40;101666.34;;;15.94;55.25
75298;BME280;63896;45.990;18.688;2024-02-21T09:14:43;101670.69;;;15.63;52.57
75298;BME280;63896;45.990;18.688;2024-02-21T09:17:46;101671.06;;;14.71;54.00
75298;BME280;63896;45.990;18.688;2024-02-21T09:20:49;101664.66;;;15.37;52.91
75298;BME280;63896;45.990;18.688;2024-02-21T09:23:52;101663.28;;;15.21;53.40
75298;BME280;63896;45.990;18.688;2024-02-21T09:26:59;101659.56;;;15.22;54.00
75298;BME280;63896;45.990;18.688;2024-02-21T09:30:02;101665.31;;;14.68;55.00
75298;BME280;63896;45.990;18.688;2024-02-21T09:33:07;101663.75;;;14.27;56.72
75298;BME280;63896;45.990;18.688;2024-02-21T09:36:10;101670.31;;;14.51;55.90
75298;BME280;63896;45.990;18.688;2024-02-21T09:39:16;101660.38;;;14.71;53.52
75298;BME280;63896;45.990;18.688;2024-02-21T09:42:21;101670.16;;;15.04;52.59
75298;BME280;63896;45.990;18.688;2024-02-21T09:45:24;101666.41;;;14.54;53.00
75298;BME280;63896;45.990;18.688;2024-02-21T09:51:53;101654.66;;;14.61;53.57
75298;BME280;63896;45.990;18.688;2024-02-21T09:54:58;101661.47;;;15.15;52.39
75298;BME280;63896;45.990;18.688;2024-02-21T09:58:02;101661.22;;;14.65;52.14
75298;BME280;63896;45.990;18.688;2024-02-21T10:01:06;101666.53;;;17.33;46.98
75298;BME280;63896;45.990;18.688;2024-02-21T10:04:27;101650.31;;;20.15;40.43
75298;BME280;63896;45.990;18.688;2024-02-21T10:07:31;101642.84;;;23.31;34.14
75298;BME280;63896;45.990;18.688;2024-02-21T10:10:44;101637.66;;;23.04;34.13
75298;BME280;63896;45.990;18.688;2024-02-21T10:13:47;101634.25;;;21.88;34.70
75298;BME280;63896;45.990;18.688;2024-02-21T10:16:57;101631.50;;;20.37;35.91
75298;BME280;63896;45.990;18.688;2024-02-21T10:20:10;101622.25;;;22.05;34.42
75298;BME280;63896;45.990;18.688;2024-02-21T10:23:13;101618.66;;;21.36;34.50
75298;BME280;63896;45.990;18.688;2024-02-21T10:26:18;101611.56;;;22.72;32.77
75298;BME280;63896;45.990;18.688;2024-02-21T10:29:21;101603.75;;;22.86;31.96
75298;BME280;63896;45.990;18.688;2024-02-21T10:32:24;101604.03;;;22.85;31.43
75298;BME280;63896;45.990;18.688;2024-02-21T10:35:30;101609.00;;;22.56;31.86
75298;BME280;63896;45.990;18.688;2024-02-21T10:38:33;101611.63;;;21.08;33.10
75298;BME280;63896;45.990;18.688;2024-02-21T10:41:36;101612.13;;;20.40;34.75
75298;BME280;63896;45.990;18.688;2024-02-21T10:44:40;101608.00;;;21.51;33.06
75298;BME280;63896;45.990;18.688;2024-02-21T10:47:50;101589.53;;;23.61;29.99
75298;BME280;63896;45.990;18.688;2024-02-21T10:51:02;101598.69;;;22.43;31.16
75298;BME280;63896;45.990;18.688;2024-02-21T10:57:27;101564.91;;;21.98;31.72
75298;BME280;63896;45.990;18.688;2024-02-21T11:00:30;101565.91;;;23.01;30.96
75298;BME280;63896;45.990;18.688;2024-02-21T11:03:34;101553.47;;;23.86;29.67
75298;BME280;63896;45.990;18.688;2024-02-21T11:06:40;101551.31;;;23.38;30.45
75298;BME280;63896;45.990;18.688;2024-02-21T11:09:51;101546.13;;;23.97;29.16
75298;BME280;63896;45.990;18.688;2024-02-21T11:13:10;101549.31;;;25.27;26.97
75298;BME280;63896;45.990;18.688;2024-02-21T11:16:24;101541.97;;;24.30;27.95
75298;BME280;63896;45.990;18.688;2024-02-21T11:19:30;101549.78;;;25.34;26.43
75298;BME280;63896;45.990;18.688;2024-02-21T11:22:41;101537.22;;;23.86;28.01
75298;BME280;63896;45.990;18.688;2024-02-21T11:25:44;101529.00;;;25.20;26.94
75298;BME280;63896;45.990;18.688;2024-02-21T11:29:01;101519.63;;;23.58;28.11
75298;BME280;63896;45.990;18.688;2024-02-21T11:32:05;101517.13;;;23.87;27.91
75298;BME280;63896;45.990;18.688;2024-02-21T11:35:08;101502.56;;;22.97;28.56
75298;BME280;63896;45.990;18.688;2024-02-21T11:38:22;101505.47;;;21.61;30.88
75298;BME280;63896;45.990;18.688;2024-02-21T11:41:27;101509.41;;;21.85;31.48
75298;BME280;63896;45.990;18.688;2024-02-21T11:44:32;101501.44;;;23.69;28.61
75298;BME280;63896;45.990;18.688;2024-02-21T11:47:34;101493.44;;;24.77;27.55
75298;BME280;63896;45.990;18.688;2024-02-21T11:50:42;101482.09;;;24.65;27.53
75298;BME280;63896;45.990;18.688;2024-02-21T11:53:44;101484.94;;;23.60;27.39
75298;BME280;63896;45.990;18.688;2024-02-21T11:57:02;101476.13;;;24.14;27.40
75298;BME280;63896;45.990;18.688;2024-02-21T12:00:17;101476.44;;;23.97;27.19
75298;BME280;63896;45.990;18.688;2024-02-21T12:03:22;101482.53;;;23.29;28.16
75298;BME280;63896;45.990;18.688;2024-02-21T12:06:27;101475.19;;;22.84;28.02
75298;BME280;63896;45.990;18.688;2024-02-21T12:09:30;101486.56;;;24.46;26.50
75298;BME280;63896;45.990;18.688;2024-02-21T12:12:33;101464.53;;;24.96;25.55
75298;BME280;63896;45.990;18.688;2024-02-21T12:15:39;101461.13;;;24.32;27.04
75298;BME280;63896;45.990;18.688;2024-02-21T12:18:42;101466.13;;;23.99;26.70
75298;BME280;63896;45.990;18.688;2024-02-21T12:21:45;101459.69;;;24.93;26.79
75298;BME280;63896;45.990;18.688;2024-02-21T12:24:50;101453.88;;;22.15;28.88
75298;BME280;63896;45.990;18.688;2024-02-21T12:27:54;101452.44;;;23.30;28.19
75298;BME280;63896;45.990;18.688;2024-02-21T12:30:57;101447.06;;;23.05;27.71
75298;BME280;63896;45.990;18.688;2024-02-21T12:34:00;101440.19;;;21.01;30.29
75298;BME280;63896;45.990;18.688;2024-02-21T12:37:06;101446.88;;;19.24;32.96
75298;BME280;63896;45.990;18.688;2024-02-21T12:40:12;101445.69;;;18.42;34.71
75298;BME280;63896;45.990;18.688;2024-02-21T12:43:17;101444.56;;;17.40;35.93
75298;BME280;63896;45.990;18.688;2024-02-21T12:46:21;101434.88;;;17.27;35.87
75298;BME280;63896;45.990;18.688;2024-02-21T12:49:23;101420.88;;;17.83;35.48
75298;BME280;63896;45.990;18.688;2024-02-21T12:52:27;101424.84;;;17.23;36.43
75298;BME280;63896;45.990;18.688;2024-02-21T12:55:30;101418.31;;;17.65;35.07
75298;BME280;63896;45.990;18.688;2024-02-21T12:58:33;101411.72;;;18.36;33.33
75298;BME280;63896;45.990;18.688;2024-02-21T13:01:36;101419.88;;;20.61;30.35
75298;BME280;63896;45.990;18.688;2024-02-21T13:04:41;101411.03;;;21.39;28.90
75298;BME280;63896;45.990;18.688;2024-02-21T13:07:44;101401.47;;;20.85;29.35
75298;BME280;63896;45.990;18.688;2024-02-21T13:10:48;101404.94;;;21.54;29.17
75298;BME280;63896;45.990;18.688;2024-02-21T13:13:53;101404.25;;;19.93;30.53
75298;BME280;63896;45.990;18.688;2024-02-21T13:16:56;101398.34;;;18.69;32.60
75298;BME280;63896;45.990;18.688;2024-02-21T13:19:59;101391.91;;;17.85;33.54
75298;BME280;63896;45.990;18.688;2024-02-21T13:23:03;101395.34;;;17.57;34.49
75298;BME280;63896;45.990;18.688;2024-02-21T13:26:06;101388.69;;;17.48;34.88
75298;BME280;63896;45.990;18.688;2024-02-21T13:29:09;101389.88;;;17.06;35.26
75298;BME280;63896;45.990;18.688;2024-02-21T13:32:11;101390.38;;;16.73;36.15
75298;BME280;63896;45.990;18.688;2024-02-21T13:35:15;101391.63;;;16.29;36.66
75298;BME280;63896;45.990;18.688;2024-02-21T13:38:20;101394.50;;;15.98;36.46
75298;BME280;63896;45.990;18.688;2024-02-21T13:41:23;101395.03;;;15.70;37.20
75298;BME280;63896;45.990;18.688;2024-02-21T13:44:26;101391.47;;;15.76;37.22
75298;BME280;63896;45.990;18.688;2024-02-21T13:47:30;101395.13;;;15.63;36.95
75298;BME280;63896;45.990;18.688;2024-02-21T13:50:33;101399.75;;;14.82;38.85
75298;BME280;63896;45.990;18.688;2024-02-21T13:53:44;101381.41;;;15.10;38.56
75298;BME280;63896;45.990;18.688;2024-02-21T13:56:47;101389.09;;;15.68;38.14
75298;BME280;63896;45.990;18.688;2024-02-21T13:59:55;101379.75;;;15.59;38.21
75298;BME280;63896;45.990;18.688;2024-02-21T14:03:17;101387.69;;;15.22;38.47
75298;BME280;63896;45.990;18.688;2024-02-21T14:06:22;101385.78;;;14.80;39.45
75298;BME280;63896;45.990;18.688;2024-02-21T14:09:25;101383.81;;;14.69;40.02
75298;BME280;63896;45.990;18.688;2024-02-21T14:12:28;101381.91;;;14.76;40.32
75298;BME280;63896;45.990;18.688;2024-02-21T14:15:31;101380.13;;;14.70;40.04
75298;BME280;63896;45.990;18.688;2024-02-21T14:18:36;101367.03;;;14.87;39.81
75298;BME280;63896;45.990;18.688;2024-02-21T14:21:40;101368.91;;;14.55;40.03
75298;BME280;63896;45.990;18.688;2024-02-21T14:24:46;101356.25;;;14.75;39.63
75298;BME280;63896;45.990;18.688;2024-02-21T14:27:48;101364.16;;;15.06;39.28
75298;BME280;63896;45.990;18.688;2024-02-21T14:30:51;101355.53;;;16.02;37.33
75298;BME280;63896;45.990;18.688;2024-02-21T14:33:56;101346.81;;;16.89;36.25
75298;BME280;63896;45.990;18.688;2024-02-21T14:36:58;101345.97;;;14.97;38.68
75298;BME280;63896;45.990;18.688;2024-02-21T14:40:01;101346.06;;;16.17;36.81
75298;BME280;63896;45.990;18.688;2024-02-21T14:43:04;101338.91;;;17.06;35.54
75298;BME280;63896;45.990;18.688;2024-02-21T14:46:07;101327.78;;;17.49;35.13
75298;BME280;63896;45.990;18.688;2024-02-21T14:49:10;101335.00;;;17.72;34.12
75298;BME280;63896;45.990;18.688;2024-02-21T14:52:14;101328.41;;;16.81;34.85
75298;BME280;63896;45.990;18.688;2024-02-21T14:55:19;101327.59;;;17.15;34.27
75298;BME280;63896;45.990;18.688;2024-02-21T14:58:22;101323.28;;;16.68;35.56
75298;BME280;63896;45.990;18.688;2024-02-21T15:01:25;101318.16;;;15.22;37.90
75298;BME280;63896;45.990;18.688;2024-02-21T15:04:28;101316.09;;;14.25;40.51
75298;BME280;63896;45.990;18.688;2024-02-21T15:07:32;101316.56;;;13.71;41.98
75298;BME280;63896;45.990;18.688;2024-02-21T15:10:34;101317.28;;;13.54;42.80
75298;BME280;63896;45.990;18.688;2024-02-21T15:13:37;101304.03;;;13.08;43.63
75298;BME280;63896;45.990;18.688;2024-02-21T15:16:40;101303.25;;;13.01;44.20
75298;BME280;63896;45.990;18.688;2024-02-21T15:19:43;101304.50;;;12.59;45.21
75298;BME280;63896;45.990;18.688;2024-02-21T15:22:47;101314.31;;;12.45;45.92
75298;BME280;63896;45.990;18.688;2024-02-21T15:25:50;101306.53;;;12.43;45.63
75298;BME280;63896;45.990;18.688;2024-02-21T15:28:53;101303.44;;;12.33;45.21
75298;BME280;63896;45.990;18.688;2024-02-21T15:31:56;101301.81;;;12.26;46.24
75298;BME280;63896;45.990;18.688;2024-02-21T15:34:58;101302.41;;;12.08;46.33
75298;BME280;63896;45.990;18.688;2024-02-21T15:38:02;101306.84;;;12.01;47.27
75298;BME280;63896;45.990;18.688;2024-02-21T15:41:05;101303.78;;;11.91;47.88
75298;BME280;63896;45.990;18.688;2024-02-21T15:44:08;101293.09;;;11.78;47.70
75298;BME280;63896;45.990;18.688;2024-02-21T15:47:15;101298.75;;;11.62;48.20
75298;BME280;63896;45.990;18.688;2024-02-21T15:50:21;101295.78;;;11.43;48.44
75298;BME280;63896;45.990;18.688;2024-02-21T15:53:27;101281.63;;;11.30;49.45
75298;BME280;63896;45.990;18.688;2024-02-21T15:56:30;101288.50;;;11.18;49.97
75298;BME280;63896;45.990;18.688;2024-02-21T15:59:33;101287.97;;;11.01;50.35
75298;BME280;63896;45.990;18.688;2024-02-21T16:02:36;101289.50;;;10.82;50.45
75298;BME280;63896;45.990;18.688;2024-02-21T16:05:41;101289.16;;;10.64;51.14
75298;BME280;63896;45.990;18.688;2024-02-21T16:08:44;101295.19;;;10.51;51.77